sensor_id;sensor_type;location;lat;lon;timestamp;pressure;altitude;pressure_sealevel;temperature;humidity
46846;BME280;33947;46.804;134.252;2024-01-30T00:01:18;102680.91;;;-25.32;55.23
46846;BME280;33947;46.804;134.252;2024-01-30T00:04:25;102676.59;;;-25.74;56.17
46846;BME280;33947;46.804;134.252;2024-01-30T00:07:34;102686.47;;;-24.80;58.07
46846;BME280;33947;46.804;134.252;2024-01-30T00:10:41;102688.44;;;-24.47;56.26
46846;BME280;33947;46.804;134.252;2024-01-30T00:13:48;102684.25;;;-24.90;56.63
46846;BME280;33947;46.804;134.252;2024-01-30T00:16:56;102678.88;;;-23.94;57.13
46846;BME280;33947;46.804;134.252;2024-01-30T00:20:04;102684.47;;;-23.33;55.08
46846;BME280;33947;46.804;134.252;2024-01-30T00:23:16;102684.22;;;-23.48;54.46
46846;BME280;33947;46.804;134.252;2024-01-30T00:26:23;102672.22;;;-22.73;54.47
46846;BME280;33947;46.804;134.252;2024-01-30T00:29:31;102671.63;;;-22.77;53.73
46846;BME280;33947;46.804;134.252;2024-01-30T00:32:38;102667.16;;;-22.21;53.54
46846;BME280;33947;46.804;134.252;2024-01-30T00:35:45;102665.47;;;-21.61;53.00
46846;BME280;33947;46.804;134.252;2024-01-30T00:38:54;102667.28;;;-20.93;52.66
46846;BME280;33947;46.804;134.252;2024-01-30T00:42:01;102663.16;;;-21.53;50.33
46846;BME280;33947;46.804;134.252;2024-01-30T00:45:12;102658.38;;;-21.64;52.72
46846;BME280;33947;46.804;134.252;2024-01-30T00:48:19;102663.81;;;-21.61;52.95
46846;BME280;33947;46.804;134.252;2024-01-30T00:51:25;102664.97;;;-21.92;53.54
46846;BME280;33947;46.804;134.252;2024-01-30T00:54:36;102659.81;;;-21.99;55.42
46846;BME280;33947;46.804;134.252;2024-01-30T00:57:44;102662.66;;;-21.30;55.04
46846;BME280;33947;46.804;134.252;2024-01-30T01:00:52;102663.28;;;-21.45;55.14
46846;BME280;33947;46.804;134.252;2024-01-30T01:03:59;102679.41;;;-20.70;56.91
46846;BME280;33947;46.804;134.252;2024-01-30T01:07:07;102672.69;;;-19.93;56.47
46846;BME280;33947;46.804;134.252;2024-01-30T01:10:16;102683.44;;;-20.30;53.19
46846;BME280;33947;46.804;134.252;2024-01-30T01:13:24;102684.91;;;-19.76;54.86
46846;BME280;33947;46.804;134.252;2024-01-30T01:16:33;102683.84;;;-18.47;53.33
46846;BME280;33947;46.804;134.252;2024-01-30T01:19:40;102679.84;;;-18.38;51.64
46846;BME280;33947;46.804;134.252;2024-01-30T01:22:47;102679.75;;;-18.09;50.24
46846;BME280;33947;46.804;134.252;2024-01-30T01:25:56;102682.69;;;-18.27;50.55
46846;BME280;33947;46.804;134.252;2024-01-30T01:29:06;102672.41;;;-18.51;51.22
46846;BME280;33947;46.804;134.252;2024-01-30T01:32:15;102683.69;;;-18.70;51.58
46846;BME280;33947;46.804;134.252;2024-01-30T01:35:22;102680.03;;;-18.44;51.12
46846;BME280;33947;46.804;134.252;2024-01-30T01:38:31;102668.69;;;-17.48;51.20
46846;BME280;33947;46.804;134.252;2024-01-30T01:41:47;102684.50;;;-16.58;50.09
46846;BME280;33947;46.804;134.252;2024-01-30T01:44:54;102667.31;;;-16.51;49.77
46846;BME280;33947;46.804;134.252;2024-01-30T01:48:01;102663.53;;;-15.41;49.63
46846;BME280;33947;46.804;134.252;2024-01-30T01:51:12;102660.78;;;-13.89;47.31
46846;BME280;33947;46.804;134.252;2024-01-30T01:54:21;102660.75;;;-13.45;45.74
46846;BME280;33947;46.804;134.252;2024-01-30T01:57:30;102662.78;;;-13.06;43.85
46846;BME280;33947;46.804;134.252;2024-01-30T02:00:38;102648.66;;;-13.37;45.27
46846;BME280;33947;46.804;134.252;2024-01-30T02:03:46;102654.31;;;-14.29;45.16
46846;BME280;33947;46.804;134.252;2024-01-30T02:06:54;102651.53;;;-14.57;46.54
46846;BME280;33947;46.804;134.252;2024-01-30T02:10:02;102643.78;;;-14.32;47.05
46846;BME280;33947;46.804;134.252;2024-01-30T02:13:11;102636.69;;;-14.44;47.79
46846;BME280;33947;46.804;134.252;2024-01-30T02:16:18;102638.78;;;-13.69;48.19
46846;BME280;33947;46.804;134.252;2024-01-30T02:19:26;102631.25;;;-14.47;46.15
46846;BME280;33947;46.804;134.252;2024-01-30T02:22:36;102620.38;;;-14.62;48.49
46846;BME280;33947;46.804;134.252;2024-01-30T02:25:43;102624.34;;;-14.22;47.12
46846;BME280;33947;46.804;134.252;2024-01-30T02:28:51;102610.59;;;-13.87;48.87
46846;BME280;33947;46.804;134.252;2024-01-30T02:31:58;102598.56;;;-15.43;48.02
46846;BME280;33947;46.804;134.252;2024-01-30T02:35:05;102588.47;;;-15.50;49.40
46846;BME280;33947;46.804;134.252;2024-01-30T02:38:15;102603.56;;;-14.25;49.19
46846;BME280;33947;46.804;134.252;2024-01-30T02:41:22;102597.09;;;-13.49;48.99
46846;BME280;33947;46.804;134.252;2024-01-30T02:44:30;102574.31;;;-14.36;47.13
46846;BME280;33947;46.804;134.252;2024-01-30T02:47:36;102553.53;;;-13.58;48.20
46846;BME280;33947;46.804;134.252;2024-01-30T02:50:44;102570.72;;;-13.20;47.63
46846;BME280;33947;46.804;134.252;2024-01-30T02:53:53;102577.25;;;-13.96;47.68
46846;BME280;33947;46.804;134.252;2024-01-30T02:57:00;102579.19;;;-14.90;49.49
46846;BME280;33947;46.804;134.252;2024-01-30T03:00:09;102563.84;;;-15.32;53.09
46846;BME280;33947;46.804;134.252;2024-01-30T03:03:17;102569.59;;;-15.26;51.70
46846;BME280;33947;46.804;134.252;2024-01-30T03:06:24;102568.81;;;-15.92;54.21
46846;BME280;33947;46.804;134.252;2024-01-30T03:09:35;102563.63;;;-14.49;53.33
46846;BME280;33947;46.804;134.252;2024-01-30T03:12:42;102491.69;;;-13.61;49.70
46846;BME280;33947;46.804;134.252;2024-01-30T03:15:49;102542.78;;;-12.89;47.42
46846;BME280;33947;46.804;134.252;2024-01-30T03:18:56;102544.13;;;-12.84;46.32
46846;BME280;33947;46.804;134.252;2024-01-30T03:22:06;102545.88;;;-12.55;46.15
46846;BME280;33947;46.804;134.252;2024-01-30T03:25:14;102537.91;;;-12.58;46.54
46846;BME280;33947;46.804;134.252;2024-01-30T03:28:21;102541.31;;;-12.49;45.52
46846;BME280;33947;46.804;134.252;2024-01-30T03:31:28;102545.00;;;-12.74;46.41
46846;BME280;33947;46.804;134.252;2024-01-30T03:34:35;102542.22;;;-12.95;46.41
46846;BME280;33947;46.804;134.252;2024-01-30T03:37:42;102519.56;;;-14.01;48.88
46846;BME280;33947;46.804;134.252;2024-01-30T03:40:51;102539.34;;;-13.54;49.88
46846;BME280;33947;46.804;134.252;2024-01-30T03:43:58;102531.03;;;-13.52;49.01
46846;BME280;33947;46.804;134.252;2024-01-30T03:47:05;102521.41;;;-13.63;50.19
46846;BME280;33947;46.804;134.252;2024-01-30T03:50:13;102524.41;;;-13.22;48.32
46846;BME280;33947;46.804;134.252;2024-01-30T03:53:20;102510.53;;;-13.60;48.81
46846;BME280;33947;46.804;134.252;2024-01-30T03:56:28;102511.44;;;-12.95;49.45
46846;BME280;33947;46.804;134.252;2024-01-30T03:59:35;102508.19;;;-12.45;47.10
46846;BME280;33947;46.804;134.252;2024-01-30T04:02:42;102503.97;;;-12.35;46.13
46846;BME280;33947;46.804;134.252;2024-01-30T04:05:52;102490.34;;;-12.44;45.88
46846;BME280;33947;46.804;134.252;2024-01-30T04:08:59;102492.59;;;-12.28;45.66
46846;BME280;33947;46.804;134.252;2024-01-30T04:12:09;102490.22;;;-12.16;45.53
46846;BME280;33947;46.804;134.252;2024-01-30T04:15:16;102500.88;;;-12.11;45.37
46846;BME280;33947;46.804;134.252;2024-01-30T04:18:23;102506.97;;;-12.40;45.93
46846;BME280;33947;46.804;134.252;2024-01-30T04:21:30;102493.00;;;-12.72;46.71
46846;BME280;33947;46.804;134.252;2024-01-30T04:24:37;102512.88;;;-12.41;46.48
46846;BME280;33947;46.804;134.252;2024-01-30T04:27:48;102507.47;;;-12.34;45.97
46846;BME280;33947;46.804;134.252;2024-01-30T04:30:56;102508.25;;;-12.35;45.50
46846;BME280;33947;46.804;134.252;2024-01-30T04:34:03;102506.09;;;-12.50;45.46
46846;BME280;33947;46.804;134.252;2024-01-30T04:37:11;102500.13;;;-12.78;46.71
46846;BME280;33947;46.804;134.252;2024-01-30T04:40:18;102488.88;;;-12.89;47.08
46846;BME280;33947;46.804;134.252;2024-01-30T04:43:28;102479.94;;;-12.84;46.67
46846;BME280;33947;46.804;134.252;2024-01-30T04:46:35;102499.03;;;-12.71;46.66
46846;BME280;33947;46.804;134.252;2024-01-30T04:49:42;102488.13;;;-12.69;46.27
46846;BME280;33947;46.804;134.252;2024-01-30T04:52:52;102465.88;;;-12.98;46.39
46846;BME280;33947;46.804;134.252;2024-01-30T04:56:00;102483.81;;;-13.54;47.86
46846;BME280;33947;46.804;134.252;2024-01-30T04:59:08;102472.97;;;-13.51;47.94
46846;BME280;33947;46.804;134.252;2024-01-30T05:02:22;102478.88;;;-13.61;47.65
46846;BME280;33947;46.804;134.252;2024-01-30T05:05:30;102475.69;;;-13.58;48.56
46846;BME280;33947;46.804;134.252;2024-01-30T05:08:37;102465.97;;;-13.43;48.24
46846;BME280;33947;46.804;134.252;2024-01-30T05:11:44;102473.25;;;-13.48;48.56
46846;BME280;33947;46.804;134.252;2024-01-30T05:14:56;102454.63;;;-13.37;47.27
46846;BME280;33947;46.804;134.252;2024-01-30T05:18:05;102473.69;;;-13.89;48.73
46846;BME280;33947;46.804;134.252;2024-01-30T05:21:18;102471.31;;;-13.96;49.30
46846;BME280;33947;46.804;134.252;2024-01-30T05:24:26;102457.09;;;-13.84;50.06
46846;BME280;33947;46.804;134.252;2024-01-30T05:27:34;102466.44;;;-13.48;48.38
46846;BME280;33947;46.804;134.252;2024-01-30T05:30:44;102453.84;;;-13.64;48.36
46846;BME280;33947;46.804;134.252;2024-01-30T05:33:51;102448.75;;;-13.72;48.17
46846;BME280;33947;46.804;134.252;2024-01-30T05:36:58;102461.59;;;-13.81;49.67
46846;BME280;33947;46.804;134.252;2024-01-30T05:40:06;102457.72;;;-13.58;48.65
46846;BME280;33947;46.804;134.252;2024-01-30T05:43:14;102466.91;;;-13.88;48.82
46846;BME280;33947;46.804;134.252;2024-01-30T05:46:23;102467.06;;;-13.96;49.45
46846;BME280;33947;46.804;134.252;2024-01-30T05:49:32;102466.31;;;-13.95;49.18
46846;BME280;33947;46.804;134.252;2024-01-30T05:52:42;102350.06;;;-14.60;49.67
46846;BME280;33947;46.804;134.252;2024-01-30T05:55:50;102477.47;;;-13.85;48.91
46846;BME280;33947;46.804;134.252;2024-01-30T05:58:58;102453.06;;;-13.63;48.57
46846;BME280;33947;46.804;134.252;2024-01-30T06:02:07;102470.97;;;-13.45;48.37
46846;BME280;33947;46.804;134.252;2024-01-30T06:05:14;102428.75;;;-13.85;48.56
46846;BME280;33947;46.804;134.252;2024-01-30T06:08:22;102473.28;;;-13.57;48.09
46846;BME280;33947;46.804;134.252;2024-01-30T06:11:29;102478.47;;;-14.20;49.27
46846;BME280;33947;46.804;134.252;2024-01-30T06:14:36;102481.50;;;-14.33;49.96
46846;BME280;33947;46.804;134.252;2024-01-30T06:17:45;102472.16;;;-14.32;50.23
46846;BME280;33947;46.804;134.252;2024-01-30T06:20:53;102475.44;;;-14.16;49.82
46846;BME280;33947;46.804;134.252;2024-01-30T06:23:59;102472.16;;;-14.32;49.72
46846;BME280;33947;46.804;134.252;2024-01-30T06:27:06;102471.69;;;-14.19;49.49
46846;BME280;33947;46.804;134.252;2024-01-30T06:30:15;102473.63;;;-14.17;49.55
46846;BME280;33947;46.804;134.252;2024-01-30T06:33:35;102477.88;;;-14.17;49.48
46846;BME280;33947;46.804;134.252;2024-01-30T06:36:42;102463.88;;;-14.30;49.09
46846;BME280;33947;46.804;134.252;2024-01-30T06:39:49;102468.69;;;-14.24;49.46
46846;BME280;33947;46.804;134.252;2024-01-30T06:42:57;102470.59;;;-14.13;49.12
46846;BME280;33947;46.804;134.252;2024-01-30T06:46:04;102470.69;;;-14.48;49.58
46846;BME280;33947;46.804;134.252;2024-01-30T06:49:13;102470.22;;;-14.61;49.97
46846;BME280;33947;46.804;134.252;2024-01-30T06:52:20;102463.59;;;-14.95;50.69
46846;BME280;33947;46.804;134.252;2024-01-30T06:55:27;102450.63;;;-15.05;50.38
46846;BME280;33947;46.804;134.252;2024-01-30T06:58:34;102471.00;;;-14.80;50.84
46846;BME280;33947;46.804;134.252;2024-01-30T07:01:41;102452.16;;;-14.81;50.86
46846;BME280;33947;46.804;134.252;2024-01-30T07:04:51;102467.81;;;-14.69;50.64
46846;BME280;33947;46.804;134.252;2024-01-30T07:07:58;102456.66;;;-14.60;50.12
46846;BME280;33947;46.804;134.252;2024-01-30T07:11:05;102447.66;;;-14.57;49.71
46846;BME280;33947;46.804;134.252;2024-01-30T07:14:13;102457.13;;;-14.73;49.93
46846;BME280;33947;46.804;134.252;2024-01-30T07:17:19;102446.13;;;-14.90;50.35
46846;BME280;33947;46.804;134.252;2024-01-30T07:20:29;102444.34;;;-14.82;50.57
46846;BME280;33947;46.804;134.252;2024-01-30T07:23:40;102438.00;;;-15.03;50.31
46846;BME280;33947;46.804;134.252;2024-01-30T07:26:47;102425.22;;;-15.03;50.45
46846;BME280;33947;46.804;134.252;2024-01-30T07:29:54;102430.00;;;-15.24;50.68
46846;BME280;33947;46.804;134.252;2024-01-30T07:33:01;102433.78;;;-15.20;50.57
46846;BME280;33947;46.804;134.252;2024-01-30T07:36:09;102429.88;;;-15.26;50.31
46846;BME280;33947;46.804;134.252;2024-01-30T07:39:17;102433.31;;;-15.43;50.50
46846;BME280;33947;46.804;134.252;2024-01-30T07:42:24;102423.72;;;-15.79;51.03
46846;BME280;33947;46.804;134.252;2024-01-30T07:45:31;102416.88;;;-16.30;51.75
46846;BME280;33947;46.804;134.252;2024-01-30T07:48:38;102429.63;;;-16.79;52.57
46846;BME280;33947;46.804;134.252;2024-01-30T07:51:47;102428.59;;;-16.98;53.58
46846;BME280;33947;46.804;134.252;2024-01-30T07:54:54;102422.84;;;-17.20;53.50
46846;BME280;33947;46.804;134.252;2024-01-30T07:58:03;102422.75;;;-17.45;54.73
46846;BME280;33947;46.804;134.252;2024-01-30T08:01:11;102415.25;;;-17.59;54.62
46846;BME280;33947;46.804;134.252;2024-01-30T08:04:18;102419.00;;;-17.88;55.19
46846;BME280;33947;46.804;134.252;2024-01-30T08:07:27;102415.78;;;-17.94;55.92
46846;BME280;33947;46.804;134.252;2024-01-30T08:10:35;102414.53;;;-17.97;55.62
46846;BME280;33947;46.804;134.252;2024-01-30T08:13:42;102415.72;;;-18.10;56.33
46846;BME280;33947;46.804;134.252;2024-01-30T08:16:49;102402.44;;;-18.31;56.25
46846;BME280;33947;46.804;134.252;2024-01-30T08:19:57;102416.28;;;-18.36;56.69
46846;BME280;33947;46.804;134.252;2024-01-30T08:23:06;102419.41;;;-18.15;56.65
46846;BME280;33947;46.804;134.252;2024-01-30T08:26:14;102413.03;;;-18.65;56.19
46846;BME280;33947;46.804;134.252;2024-01-30T08:29:20;102417.50;;;-19.31;57.44
46846;BME280;33947;46.804;134.252;2024-01-30T08:32:29;102424.03;;;-19.26;56.95
46846;BME280;33947;46.804;134.252;2024-01-30T08:35:36;102432.25;;;-19.36;57.85
46846;BME280;33947;46.804;134.252;2024-01-30T08:38:45;102428.84;;;-19.06;57.68
46846;BME280;33947;46.804;134.252;2024-01-30T08:41:55;102434.44;;;-19.39;57.86
46846;BME280;33947;46.804;134.252;2024-01-30T08:45:05;102439.94;;;-19.79;57.99
46846;BME280;33947;46.804;134.252;2024-01-30T08:48:13;102439.22;;;-20.00;58.66
46846;BME280;33947;46.804;134.252;2024-01-30T08:51:20;102432.13;;;-19.81;59.62
46846;BME280;33947;46.804;134.252;2024-01-30T08:54:30;102423.09;;;-20.08;58.14
46846;BME280;33947;46.804;134.252;2024-01-30T08:57:39;102447.91;;;-19.98;58.72
46846;BME280;33947;46.804;134.252;2024-01-30T09:00:47;102445.03;;;-20.01;59.16
46846;BME280;33947;46.804;134.252;2024-01-30T09:03:56;102443.38;;;-19.93;58.14
46846;BME280;33947;46.804;134.252;2024-01-30T09:07:03;102436.66;;;-20.00;60.21
46846;BME280;33947;46.804;134.252;2024-01-30T09:10:19;102438.31;;;-19.93;60.14
46846;BME280;33947;46.804;134.252;2024-01-30T09:13:29;102429.94;;;-19.99;59.56
46846;BME280;33947;46.804;134.252;2024-01-30T09:16:36;102430.88;;;-20.21;59.86
46846;BME280;33947;46.804;134.252;2024-01-30T09:19:43;102429.22;;;-20.56;59.82
46846;BME280;33947;46.804;134.252;2024-01-30T09:22:50;102436.09;;;-20.55;59.67
46846;BME280;33947;46.804;134.252;2024-01-30T09:26:01;102403.84;;;-20.64;59.83
46846;BME280;33947;46.804;134.252;2024-01-30T09:29:08;102405.22;;;-20.87;59.45
46846;BME280;33947;46.804;134.252;2024-01-30T09:32:16;102436.03;;;-20.77;60.01
46846;BME280;33947;46.804;134.252;2024-01-30T09:35:24;102431.31;;;-20.81;60.22
46846;BME280;33947;46.804;134.252;2024-01-30T09:38:30;102424.31;;;-21.18;61.84
46846;BME280;33947;46.804;134.252;2024-01-30T09:41:45;102426.56;;;-21.07;61.50
46846;BME280;33947;46.804;134.252;2024-01-30T09:44:53;102398.16;;;-21.04;61.09
46846;BME280;33947;46.804;134.252;2024-01-30T09:48:02;102415.75;;;-20.99;59.35
46846;BME280;33947;46.804;134.252;2024-01-30T09:51:11;102426.72;;;-21.13;59.18
46846;BME280;33947;46.804;134.252;2024-01-30T09:54:20;102404.13;;;-20.97;59.61
46846;BME280;33947;46.804;134.252;2024-01-30T09:57:30;102423.03;;;-20.66;58.58
46846;BME280;33947;46.804;134.252;2024-01-30T10:00:37;102422.69;;;-20.69;57.63
46846;BME280;33947;46.804;134.252;2024-01-30T10:03:44;102422.44;;;-20.85;57.22
46846;BME280;33947;46.804;134.252;2024-01-30T10:06:51;102373.47;;;-21.62;58.23
46846;BME280;33947;46.804;134.252;2024-01-30T10:09:59;102414.78;;;-21.76;59.76
46846;BME280;33947;46.804;134.252;2024-01-30T10:13:08;102408.53;;;-21.65;60.31
46846;BME280;33947;46.804;134.252;2024-01-30T10:16:14;102399.41;;;-21.50;59.08
46846;BME280;33947;46.804;134.252;2024-01-30T10:19:24;102391.56;;;-21.59;59.10
46846;BME280;33947;46.804;134.252;2024-01-30T10:22:32;102394.66;;;-21.19;59.04
46846;BME280;33947;46.804;134.252;2024-01-30T10:25:40;102394.78;;;-21.67;58.79
46846;BME280;33947;46.804;134.252;2024-01-30T10:28:50;102395.53;;;-21.61;60.40
46846;BME280;33947;46.804;134.252;2024-01-30T10:31:59;102394.22;;;-21.37;59.99
46846;BME280;33947;46.804;134.252;2024-01-30T10:35:06;102402.72;;;-21.71;58.47
46846;BME280;33947;46.804;134.252;2024-01-30T10:38:15;102395.34;;;-21.97;59.38
46846;BME280;33947;46.804;134.252;2024-01-30T10:41:27;102357.16;;;-22.54;58.51
46846;BME280;33947;46.804;134.252;2024-01-30T10:44:39;102396.94;;;-22.65;59.28
46846;BME280;33947;46.804;134.252;2024-01-30T10:47:53;102400.56;;;-22.84;60.01
46846;BME280;33947;46.804;134.252;2024-01-30T10:51:03;102396.94;;;-22.86;60.17
46846;BME280;33947;46.804;134.252;2024-01-30T10:54:14;102282.50;;;-23.45;60.76
46846;BME280;33947;46.804;134.252;2024-01-30T10:57:23;102400.09;;;-22.74;59.94
46846;BME280;33947;46.804;134.252;2024-01-30T11:00:34;102387.94;;;-22.84;59.55
46846;BME280;33947;46.804;134.252;2024-01-30T11:03:44;102385.09;;;-22.59;60.44
46846;BME280;33947;46.804;134.252;2024-01-30T11:06:51;102389.06;;;-22.41;59.14
46846;BME280;33947;46.804;134.252;2024-01-30T11:10:03;102371.22;;;-22.96;58.39
46846;BME280;33947;46.804;134.252;2024-01-30T11:13:14;102373.41;;;-23.25;59.12
46846;BME280;33947;46.804;134.252;2024-01-30T11:16:22;102353.59;;;-23.55;58.84
46846;BME280;33947;46.804;134.252;2024-01-30T11:19:32;102368.34;;;-23.58;59.68
46846;BME280;33947;46.804;134.252;2024-01-30T11:22:42;102368.25;;;-23.65;59.03
46846;BME280;33947;46.804;134.252;2024-01-30T11:25:53;102359.38;;;-24.08;59.67
46846;BME280;33947;46.804;134.252;2024-01-30T11:29:03;102268.16;;;-24.57;59.59
46846;BME280;33947;46.804;134.252;2024-01-30T11:32:22;102311.38;;;-24.28;59.77
46846;BME280;33947;46.804;134.252;2024-01-30T11:35:35;102361.34;;;-23.41;60.12
46846;BME280;33947;46.804;134.252;2024-01-30T11:38:43;102364.34;;;-23.43;58.72
46846;BME280;33947;46.804;134.252;2024-01-30T11:41:57;102175.97;;;-24.62;58.47
46846;BME280;33947;46.804;134.252;2024-01-30T11:45:06;102357.53;;;-23.57;58.57
46846;BME280;33947;46.804;134.252;2024-01-30T11:48:15;102351.56;;;-23.58;57.70
46846;BME280;33947;46.804;134.252;2024-01-30T11:51:24;102343.75;;;-24.05;58.55
46846;BME280;33947;46.804;134.252;2024-01-30T11:54:32;102350.72;;;-24.10;59.27
46846;BME280;33947;46.804;134.252;2024-01-30T11:57:42;102352.13;;;-24.12;59.67
46846;BME280;33947;46.804;134.252;2024-01-30T12:00:55;102312.28;;;-24.53;58.98
46846;BME280;33947;46.804;134.252;2024-01-30T12:04:05;102352.22;;;-24.31;59.77
46846;BME280;33947;46.804;134.252;2024-01-30T12:07:17;102348.66;;;-23.61;59.86
46846;BME280;33947;46.804;134.252;2024-01-30T12:10:25;102351.63;;;-23.84;57.86
46846;BME280;33947;46.804;134.252;2024-01-30T12:13:33;102348.81;;;-23.92;58.50
46846;BME280;33947;46.804;134.252;2024-01-30T12:16:41;102332.94;;;-23.78;57.67
46846;BME280;33947;46.804;134.252;2024-01-30T12:19:51;102339.53;;;-23.86;56.93
46846;BME280;33947;46.804;134.252;2024-01-30T12:23:09;102326.00;;;-24.38;57.71
46846;BME280;33947;46.804;134.252;2024-01-30T12:26:17;102285.97;;;-24.68;57.23
46846;BME280;33947;46.804;134.252;2024-01-30T12:29:24;102337.78;;;-24.89;57.70
46846;BME280;33947;46.804;134.252;2024-01-30T12:32:36;102319.63;;;-24.55;59.03
46846;BME280;33947;46.804;134.252;2024-01-30T12:35:47;102323.78;;;-24.87;58.68
46846;BME280;33947;46.804;134.252;2024-01-30T12:39:06;102319.06;;;-24.47;59.37
46846;BME280;33947;46.804;134.252;2024-01-30T12:42:14;102316.50;;;-24.60;59.15
46846;BME280;33947;46.804;134.252;2024-01-30T12:45:21;102321.25;;;-24.17;58.48
46846;BME280;33947;46.804;134.252;2024-01-30T12:48:29;102319.44;;;-24.18;58.29
46846;BME280;33947;46.804;134.252;2024-01-30T12:51:39;102318.47;;;-24.13;58.08
46846;BME280;33947;46.804;134.252;2024-01-30T12:54:46;102318.66;;;-24.50;56.48
46846;BME280;33947;46.804;134.252;2024-01-30T12:57:53;102316.88;;;-24.69;57.76
46846;BME280;33947;46.804;134.252;2024-01-30T13:01:01;102315.38;;;-24.93;57.26
46846;BME280;33947;46.804;134.252;2024-01-30T13:04:09;102301.78;;;-25.01;58.57
46846;BME280;33947;46.804;134.252;2024-01-30T13:07:18;102318.03;;;-24.54;58.21
46846;BME280;33947;46.804;134.252;2024-01-30T13:10:26;102320.16;;;-24.32;57.28
46846;BME280;33947;46.804;134.252;2024-01-30T13:13:33;102325.03;;;-25.09;56.70
46846;BME280;33947;46.804;134.252;2024-01-30T13:16:40;102271.63;;;-25.51;57.69
46846;BME280;33947;46.804;134.252;2024-01-30T13:19:49;102319.75;;;-25.11;58.61
46846;BME280;33947;46.804;134.252;2024-01-30T13:22:58;102307.25;;;-25.17;58.33
46846;BME280;33947;46.804;134.252;2024-01-30T13:26:05;102229.47;;;-25.15;59.11
46846;BME280;33947;46.804;134.252;2024-01-30T13:29:12;102302.53;;;-24.32;57.80
46846;BME280;33947;46.804;134.252;2024-01-30T13:32:19;102310.25;;;-24.56;56.54
46846;BME280;33947;46.804;134.252;2024-01-30T13:35:27;102307.25;;;-24.53;57.55
46846;BME280;33947;46.804;134.252;2024-01-30T13:38:36;102304.06;;;-24.84;57.12
46846;BME280;33947;46.804;134.252;2024-01-30T13:41:44;102285.78;;;-25.02;58.25
46846;BME280;33947;46.804;134.252;2024-01-30T13:44:51;102282.84;;;-24.60;58.93
46846;BME280;33947;46.804;134.252;2024-01-30T13:47:58;102289.09;;;-24.38;57.58
46846;BME280;33947;46.804;134.252;2024-01-30T13:51:05;102288.19;;;-24.38;56.83
46846;BME280;33947;46.804;134.252;2024-01-30T13:54:14;102307.03;;;-24.29;56.91
46846;BME280;33947;46.804;134.252;2024-01-30T13:57:24;102303.94;;;-24.34;56.23
46846;BME280;33947;46.804;134.252;2024-01-30T14:00:31;102303.63;;;-24.43;57.48
46846;BME280;33947;46.804;134.252;2024-01-30T14:03:38;102304.03;;;-24.52;57.13
46846;BME280;33947;46.804;134.252;2024-01-30T14:06:45;102308.69;;;-24.30;57.76
46846;BME280;33947;46.804;134.252;2024-01-30T14:10:06;102291.13;;;-24.22;57.52
46846;BME280;33947;46.804;134.252;2024-01-30T14:13:17;102297.16;;;-24.40;57.36
46846;BME280;33947;46.804;134.252;2024-01-30T14:16:24;102296.75;;;-24.69;60.01
46846;BME280;33947;46.804;134.252;2024-01-30T14:19:31;102298.50;;;-24.50;60.44
46846;BME280;33947;46.804;134.252;2024-01-30T14:22:38;102284.47;;;-23.96;59.51
46846;BME280;33947;46.804;134.252;2024-01-30T14:25:47;102293.03;;;-23.88;58.10
46846;BME280;33947;46.804;134.252;2024-01-30T14:28:55;102286.88;;;-23.77;57.68
46846;BME280;33947;46.804;134.252;2024-01-30T14:32:02;102288.19;;;-24.00;57.21
46846;BME280;33947;46.804;134.252;2024-01-30T14:35:09;102291.63;;;-24.25;56.56
46846;BME280;33947;46.804;134.252;2024-01-30T14:38:17;102291.34;;;-24.34;57.14
46846;BME280;33947;46.804;134.252;2024-01-30T14:41:29;102289.25;;;-24.75;58.06
46846;BME280;33947;46.804;134.252;2024-01-30T14:44:35;102277.25;;;-25.28;60.18
46846;BME280;33947;46.804;134.252;2024-01-30T14:47:43;102236.69;;;-25.55;61.26
46846;BME280;33947;46.804;134.252;2024-01-30T14:50:51;102284.56;;;-25.30;62.14
46846;BME280;33947;46.804;134.252;2024-01-30T14:53:58;102276.34;;;-25.16;62.97
46846;BME280;33947;46.804;134.252;2024-01-30T14:57:07;102275.00;;;-25.01;63.35
46846;BME280;33947;46.804;134.252;2024-01-30T15:00:15;102272.59;;;-24.93;63.25
46846;BME280;33947;46.804;134.252;2024-01-30T15:03:23;102275.00;;;-24.30;62.14
46846;BME280;33947;46.804;134.252;2024-01-30T15:06:32;102279.66;;;-24.07;60.89
46846;BME280;33947;46.804;134.252;2024-01-30T15:09:40;102256.16;;;-24.26;60.32
46846;BME280;33947;46.804;134.252;2024-01-30T15:12:49;102272.66;;;-24.16;60.19
46846;BME280;33947;46.804;134.252;2024-01-30T15:15:56;102271.03;;;-23.76;59.56
46846;BME280;33947;46.804;134.252;2024-01-30T15:19:05;102274.34;;;-23.70;58.22
46846;BME280;33947;46.804;134.252;2024-01-30T15:22:15;102269.66;;;-23.87;58.81
46846;BME280;33947;46.804;134.252;2024-01-30T15:25:22;102249.72;;;-24.11;59.02
46846;BME280;33947;46.804;134.252;2024-01-30T15:28:38;102275.31;;;-24.08;59.49
46846;BME280;33947;46.804;134.252;2024-01-30T15:31:46;102275.41;;;-24.14;60.17
46846;BME280;33947;46.804;134.252;2024-01-30T15:34:54;102269.34;;;-24.09;60.80
46846;BME280;33947;46.804;134.252;2024-01-30T15:38:01;102259.03;;;-23.51;60.09
46846;BME280;33947;46.804;134.252;2024-01-30T15:41:08;102267.28;;;-23.19;58.72
46846;BME280;33947;46.804;134.252;2024-01-30T15:44:20;102264.22;;;-23.57;58.98
46846;BME280;33947;46.804;134.252;2024-01-30T15:47:27;102258.88;;;-24.12;60.30